Limon, CO

4:10 AM MDT on July 04, 2015 (GMT -0600)
Limon, CO | | Change Station
CLOSE
Current Station
Personal Weather Station
Location: Limon, CO
Elevation: 5361 ft
Nearby Weather Stations

Elev 5361 ft 39.27 °N, 103.68 °W | Updated 11 minutes ago

Clear
Clear
57.6 °F
Feels Like 57.6 °F
N
0.0
Wind Variable Wind from SE
Gusts 0.0 mph

Today
High -- | Low -- °F
--% Chance of Precip.
Yesterday
High -- | Low -- °F
Precip. -- in
5:33 AM 8:24 PM
Waning Gibbous, 93% visible
Pressure 29.87 in
Visibility 5.0 miles
Clouds Clear
Dew Point 56 °F
Humidity 93%
Rainfall 0.00 in
Snow Depth Not available.
UV 0 out of 12
Pollen 3.20 out of 12
Air Quality Not available.
Flu Activity Not available.
METAR KLIC 040955Z AUTO 00000KT 5SM BR CLR 12/12 A3007 RMK AO2 SLP114 T01220122

More Conditions Fewer Conditions

Pressure 29.87 in
Visibility 5.0 miles
Clouds Clear
Dew Point 56 °F
Humidity 93%
Rainfall 0.00 in
Snow Depth Not available.
UV 0 out of 12
Pollen 3.20 out of 12
Air Quality Not available.
Flu Activity Not available.
METAR KLIC 040955Z AUTO 00000KT 5SM BR CLR 12/12 A3007 RMK AO2 SLP114 T01220122

More Conditions Fewer Conditions

10-Day Weather Forecast

×

Almanac

Astronomy

Jul. 04, 2015 Rise Set
Actual Time
Civil Twilight
Nautical Twilight
Astronomical Twilight
Moon
Length of Visible Light
Length of Day
Tomorrow will be .
, % of the Moon is Illuminated

Today's Extremes

State Highs State Lows

Community

WunderPhotos

Upload Photos

1,834,935 photos uploaded!

WunderBlogs® & News

Nearby

Air Quality

  Air Quality AQ Index Pollutant
Not available.

Snow Depth

Station Depth Elevation

Earthquake Activity

City Distance Mag. Time & Date
Minimum magnitude displayed is 2.5.

Coastal Water Temperatures

Place Temperature

Stations

Nearby Weather Stations

Station Location Temp. Windchill Dew Point Humidity Wind Precip. Elev Updated Type